sensor_id;sensor_type;location;lat;lon;timestamp;P1;durP1;ratioP1;P2;durP2;ratioP2
15234;SDS011;7720;51.926;4.488;2023-06-04T19:34:22;5.60;;;2.22;;
15234;SDS011;7720;51.926;4.488;2023-06-04T19:39:25;7.57;;;3.90;;
15234;SDS011;7720;51.926;4.488;2023-06-04T19:44:28;6.43;;;2.47;;
15234;SDS011;7720;51.926;4.488;2023-06-04T19:49:33;6.50;;;2.88;;
15234;SDS011;7720;51.926;4.488;2023-06-04T19:54:36;7.05;;;2.38;;
15234;SDS011;7720;51.926;4.488;2023-06-04T19:59:40;8.30;;;2.30;;
15234;SDS011;7720;51.926;4.488;2023-06-04T20:04:44;4.70;;;2.00;;
15234;SDS011;7720;51.926;4.488;2023-06-04T20:09:48;3.05;;;1.90;;
15234;SDS011;7720;51.926;4.488;2023-06-04T20:14:51;5.00;;;2.05;;
15234;SDS011;7720;51.926;4.488;2023-06-04T20:19:56;3.47;;;1.90;;
15234;SDS011;7720;51.926;4.488;2023-06-04T20:24:59;5.60;;;2.03;;
15234;SDS011;7720;51.926;4.488;2023-06-04T20:30:03;4.93;;;2.10;;
15234;SDS011;7720;51.926;4.488;2023-06-04T20:35:08;5.63;;;2.35;;
15234;SDS011;7720;51.926;4.488;2023-06-04T20:40:12;5.20;;;2.10;;
15234;SDS011;7720;51.926;4.488;2023-06-04T20:45:15;3.65;;;2.40;;
15234;SDS011;7720;51.926;4.488;2023-06-04T20:50:21;4.90;;;2.10;;
15234;SDS011;7720;51.926;4.488;2023-06-04T20:55:24;5.60;;;2.50;;
15234;SDS011;7720;51.926;4.488;2023-06-04T21:00:28;6.50;;;2.55;;
15234;SDS011;7720;51.926;4.488;2023-06-04T21:05:32;6.68;;;2.95;;
15234;SDS011;7720;51.926;4.488;2023-06-04T21:10:36;5.00;;;2.60;;
15234;SDS011;7720;51.926;4.488;2023-06-04T21:15:40;6.00;;;2.70;;
15234;SDS011;7720;51.926;4.488;2023-06-04T21:20:45;6.07;;;2.90;;
15234;SDS011;7720;51.926;4.488;2023-06-04T21:25:48;5.35;;;3.22;;
15234;SDS011;7720;51.926;4.488;2023-06-04T21:30:51;6.28;;;2.78;;
15234;SDS011;7720;51.926;4.488;2023-06-04T21:35:56;5.15;;;3.10;;
15234;SDS011;7720;51.926;4.488;2023-06-04T21:40:59;6.35;;;3.25;;
15234;SDS011;7720;51.926;4.488;2023-06-04T21:46:03;5.53;;;3.03;;
15234;SDS011;7720;51.926;4.488;2023-06-04T21:51:07;4.75;;;2.63;;
15234;SDS011;7720;51.926;4.488;2023-06-04T21:56:11;5.72;;;3.00;;
15234;SDS011;7720;51.926;4.488;2023-06-04T22:01:14;7.55;;;3.30;;
15234;SDS011;7720;51.926;4.488;2023-06-04T22:06:19;8.32;;;3.13;;
15234;SDS011;7720;51.926;4.488;2023-06-04T22:11:23;4.53;;;2.88;;
15234;SDS011;7720;51.926;4.488;2023-06-04T22:16:26;5.32;;;2.90;;
15234;SDS011;7720;51.926;4.488;2023-06-04T22:21:31;5.63;;;3.08;;
15234;SDS011;7720;51.926;4.488;2023-06-04T22:26:34;5.18;;;3.00;;
15234;SDS011;7720;51.926;4.488;2023-06-04T22:31:39;7.38;;;3.38;;
15234;SDS011;7720;51.926;4.488;2023-06-04T22:36:43;6.55;;;3.53;;
15234;SDS011;7720;51.926;4.488;2023-06-04T22:41:47;5.50;;;3.42;;
15234;SDS011;7720;51.926;4.488;2023-06-04T22:46:50;8.05;;;3.65;;
15234;SDS011;7720;51.926;4.488;2023-06-04T22:51:55;5.53;;;3.30;;
15234;SDS011;7720;51.926;4.488;2023-06-04T22:56:59;5.88;;;3.42;;
15234;SDS011;7720;51.926;4.488;2023-06-04T23:02:03;6.32;;;3.83;;
15234;SDS011;7720;51.926;4.488;2023-06-04T23:07:08;6.63;;;3.53;;
15234;SDS011;7720;51.926;4.488;2023-06-04T23:12:11;11.45;;;4.57;;
15234;SDS011;7720;51.926;4.488;2023-06-04T23:17:14;6.13;;;3.67;;
15234;SDS011;7720;51.926;4.488;2023-06-04T23:22:21;7.68;;;4.00;;
15234;SDS011;7720;51.926;4.488;2023-06-04T23:27:24;6.20;;;3.72;;
15234;SDS011;7720;51.926;4.488;2023-06-04T23:32:29;5.53;;;3.72;;
15234;SDS011;7720;51.926;4.488;2023-06-04T23:37:34;8.23;;;3.83;;
15234;SDS011;7720;51.926;4.488;2023-06-04T23:42:38;8.98;;;4.60;;
15234;SDS011;7720;51.926;4.488;2023-06-04T23:47:41;7.75;;;4.00;;
15234;SDS011;7720;51.926;4.488;2023-06-04T23:52:46;6.15;;;3.97;;
15234;SDS011;7720;51.926;4.488;2023-06-04T23:57:49;8.93;;;3.92;;
